sensor_id;sensor_type;location;lat;lon;timestamp;pressure;altitude;pressure_sealevel;temperature;humidity
51099;BME280;37146;48.210;16.234;2022-12-18T00:00:26;100311.16;;;-2.95;100.00
51099;BME280;37146;48.210;16.234;2022-12-18T00:02:51;100298.06;;;-2.96;100.00
51099;BME280;37146;48.210;16.234;2022-12-18T00:05:17;100307.88;;;-2.87;100.00
51099;BME280;37146;48.210;16.234;2022-12-18T00:07:42;100310.25;;;-2.97;100.00
51099;BME280;37146;48.210;16.234;2022-12-18T00:10:07;100317.13;;;-3.02;100.00
51099;BME280;37146;48.210;16.234;2022-12-18T00:12:32;100324.03;;;-3.04;100.00
51099;BME280;37146;48.210;16.234;2022-12-18T00:14:58;100317.97;;;-3.01;100.00
51099;BME280;37146;48.210;16.234;2022-12-18T00:17:23;100317.81;;;-3.09;100.00
51099;BME280;37146;48.210;16.234;2022-12-18T00:19:48;100317.97;;;-3.03;100.00
51099;BME280;37146;48.210;16.234;2022-12-18T00:22:13;100322.31;;;-3.03;100.00
51099;BME280;37146;48.210;16.234;2022-12-18T00:24:38;100330.13;;;-3.05;100.00
51099;BME280;37146;48.210;16.234;2022-12-18T00:27:04;100335.03;;;-3.17;100.00
51099;BME280;37146;48.210;16.234;2022-12-18T00:29:29;100336.06;;;-3.12;100.00
51099;BME280;37146;48.210;16.234;2022-12-18T00:31:54;100327.91;;;-3.23;100.00
51099;BME280;37146;48.210;16.234;2022-12-18T00:34:19;100336.69;;;-3.22;100.00
51099;BME280;37146;48.210;16.234;2022-12-18T00:36:46;100334.31;;;-3.12;100.00
51099;BME280;37146;48.210;16.234;2022-12-18T00:39:12;100331.44;;;-3.22;100.00
51099;BME280;37146;48.210;16.234;2022-12-18T00:41:37;100329.81;;;-3.17;100.00
51099;BME280;37146;48.210;16.234;2022-12-18T00:44:21;100326.97;;;-3.27;100.00
51099;BME280;37146;48.210;16.234;2022-12-18T00:46:47;100323.38;;;-3.30;100.00
51099;BME280;37146;48.210;16.234;2022-12-18T00:49:12;100336.19;;;-3.41;100.00
51099;BME280;37146;48.210;16.234;2022-12-18T00:51:38;100342.34;;;-3.39;100.00
51099;BME280;37146;48.210;16.234;2022-12-18T00:54:03;100343.19;;;-3.40;100.00
51099;BME280;37146;48.210;16.234;2022-12-18T00:56:28;100344.03;;;-3.41;100.00
51099;BME280;37146;48.210;16.234;2022-12-18T00:58:53;100342.84;;;-3.52;100.00
51099;BME280;37146;48.210;16.234;2022-12-18T01:01:19;100340.19;;;-3.54;100.00
51099;BME280;37146;48.210;16.234;2022-12-18T01:03:44;100342.94;;;-3.49;100.00
51099;BME280;37146;48.210;16.234;2022-12-18T01:06:13;100355.03;;;-3.54;100.00
51099;BME280;37146;48.210;16.234;2022-12-18T01:08:39;100359.00;;;-3.67;100.00
51099;BME280;37146;48.210;16.234;2022-12-18T01:11:08;100365.31;;;-3.61;100.00
51099;BME280;37146;48.210;16.234;2022-12-18T01:13:34;100366.66;;;-3.75;100.00
51099;BME280;37146;48.210;16.234;2022-12-18T01:15:59;100363.25;;;-3.73;100.00
51099;BME280;37146;48.210;16.234;2022-12-18T01:18:24;100370.28;;;-3.70;100.00
51099;BME280;37146;48.210;16.234;2022-12-18T01:20:49;100369.44;;;-3.69;100.00
51099;BME280;37146;48.210;16.234;2022-12-18T01:23:15;100366.56;;;-3.78;100.00
51099;BME280;37146;48.210;16.234;2022-12-18T01:25:40;100366.31;;;-3.88;100.00
51099;BME280;37146;48.210;16.234;2022-12-18T01:28:05;100362.16;;;-3.81;100.00
51099;BME280;37146;48.210;16.234;2022-12-18T01:30:30;100375.38;;;-3.75;100.00
51099;BME280;37146;48.210;16.234;2022-12-18T01:32:56;100370.03;;;-3.79;100.00
51099;BME280;37146;48.210;16.234;2022-12-18T01:35:21;100376.56;;;-3.94;100.00
51099;BME280;37146;48.210;16.234;2022-12-18T01:37:46;100374.38;;;-4.10;100.00
51099;BME280;37146;48.210;16.234;2022-12-18T01:40:12;100374.94;;;-4.21;100.00
51099;BME280;37146;48.210;16.234;2022-12-18T01:42:37;100379.09;;;-4.27;100.00
51099;BME280;37146;48.210;16.234;2022-12-18T01:47:47;100390.50;;;-4.24;100.00
51099;BME280;37146;48.210;16.234;2022-12-18T01:50:14;100381.72;;;-4.26;100.00
51099;BME280;37146;48.210;16.234;2022-12-18T01:52:41;100386.34;;;-4.46;100.00
51099;BME280;37146;48.210;16.234;2022-12-18T01:55:08;100390.13;;;-4.36;100.00
51099;BME280;37146;48.210;16.234;2022-12-18T01:57:34;100392.97;;;-4.28;100.00
51099;BME280;37146;48.210;16.234;2022-12-18T02:00:00;100388.59;;;-4.29;100.00
51099;BME280;37146;48.210;16.234;2022-12-18T02:02:26;100386.00;;;-4.57;100.00
51099;BME280;37146;48.210;16.234;2022-12-18T02:04:52;100395.19;;;-4.42;100.00
51099;BME280;37146;48.210;16.234;2022-12-18T02:10:13;100390.28;;;-4.59;100.00
51099;BME280;37146;48.210;16.234;2022-12-18T02:15:29;100403.19;;;-4.36;100.00
51099;BME280;37146;48.210;16.234;2022-12-18T02:18:08;100409.41;;;-4.60;100.00
51099;BME280;37146;48.210;16.234;2022-12-18T02:23:06;100401.31;;;-4.68;100.00
51099;BME280;37146;48.210;16.234;2022-12-18T02:25:52;100410.84;;;-4.70;100.00
51099;BME280;37146;48.210;16.234;2022-12-18T02:28:18;100421.03;;;-4.77;100.00
51099;BME280;37146;48.210;16.234;2022-12-18T02:30:46;100419.22;;;-4.80;100.00
51099;BME280;37146;48.210;16.234;2022-12-18T02:33:12;100416.53;;;-4.82;100.00
51099;BME280;37146;48.210;16.234;2022-12-18T02:35:39;100422.81;;;-5.02;100.00
51099;BME280;37146;48.210;16.234;2022-12-18T02:38:05;100420.47;;;-4.94;100.00
51099;BME280;37146;48.210;16.234;2022-12-18T02:40:31;100422.59;;;-4.83;100.00
51099;BME280;37146;48.210;16.234;2022-12-18T02:43:02;100423.75;;;-5.00;100.00
51099;BME280;37146;48.210;16.234;2022-12-18T02:45:27;100425.66;;;-4.96;100.00
51099;BME280;37146;48.210;16.234;2022-12-18T02:47:52;100428.94;;;-5.02;100.00
51099;BME280;37146;48.210;16.234;2022-12-18T03:00:17;100457.19;;;-5.38;100.00
51099;BME280;37146;48.210;16.234;2022-12-18T03:02:59;100454.59;;;-5.38;100.00
51099;BME280;37146;48.210;16.234;2022-12-18T03:05:30;100454.50;;;-5.41;100.00
51099;BME280;37146;48.210;16.234;2022-12-18T03:07:59;100452.19;;;-5.56;100.00
51099;BME280;37146;48.210;16.234;2022-12-18T03:10:28;100452.44;;;-5.50;100.00
51099;BME280;37146;48.210;16.234;2022-12-18T03:13:08;100456.97;;;-5.45;100.00
51099;BME280;37146;48.210;16.234;2022-12-18T03:15:37;100455.66;;;-5.57;100.00
51099;BME280;37146;48.210;16.234;2022-12-18T03:18:13;100451.53;;;-5.51;100.00
51099;BME280;37146;48.210;16.234;2022-12-18T03:20:42;100453.25;;;-5.76;100.00
51099;BME280;37146;48.210;16.234;2022-12-18T03:23:13;100445.78;;;-5.66;100.00
51099;BME280;37146;48.210;16.234;2022-12-18T03:25:41;100443.81;;;-5.72;100.00
51099;BME280;37146;48.210;16.234;2022-12-18T03:28:08;100446.66;;;-5.66;100.00
51099;BME280;37146;48.210;16.234;2022-12-18T03:30:34;100451.53;;;-5.75;100.00
51099;BME280;37146;48.210;16.234;2022-12-18T03:33:04;100445.97;;;-5.84;100.00
51099;BME280;37146;48.210;16.234;2022-12-18T03:35:33;100449.44;;;-5.84;100.00
51099;BME280;37146;48.210;16.234;2022-12-18T03:37:59;100460.34;;;-5.94;100.00
51099;BME280;37146;48.210;16.234;2022-12-18T03:40:30;100452.34;;;-6.00;100.00
51099;BME280;37146;48.210;16.234;2022-12-18T03:43:01;100458.06;;;-6.09;100.00
51099;BME280;37146;48.210;16.234;2022-12-18T03:45:31;100453.03;;;-6.04;100.00
51099;BME280;37146;48.210;16.234;2022-12-18T03:47:59;100448.91;;;-5.99;100.00
51099;BME280;37146;48.210;16.234;2022-12-18T03:51:08;100459.47;;;-5.95;100.00
51099;BME280;37146;48.210;16.234;2022-12-18T03:53:17;100459.63;;;-6.14;100.00
51099;BME280;37146;48.210;16.234;2022-12-18T03:55:47;100466.44;;;-6.18;100.00
51099;BME280;37146;48.210;16.234;2022-12-18T03:58:13;100468.31;;;-6.14;100.00
51099;BME280;37146;48.210;16.234;2022-12-18T04:00:41;100469.50;;;-6.28;100.00
51099;BME280;37146;48.210;16.234;2022-12-18T04:03:07;100472.34;;;-6.43;100.00
51099;BME280;37146;48.210;16.234;2022-12-18T04:05:34;100475.03;;;-6.42;100.00
51099;BME280;37146;48.210;16.234;2022-12-18T04:08:00;100476.38;;;-6.30;100.00
51099;BME280;37146;48.210;16.234;2022-12-18T04:10:26;100486.28;;;-6.43;100.00
51099;BME280;37146;48.210;16.234;2022-12-18T04:12:51;100492.94;;;-6.92;100.00
51099;BME280;37146;48.210;16.234;2022-12-18T04:15:20;100492.44;;;-6.62;100.00
51099;BME280;37146;48.210;16.234;2022-12-18T04:17:48;100490.91;;;-6.35;100.00
51099;BME280;37146;48.210;16.234;2022-12-18T04:20:14;100494.16;;;-6.41;100.00
51099;BME280;37146;48.210;16.234;2022-12-18T04:22:39;100497.59;;;-6.63;100.00
51099;BME280;37146;48.210;16.234;2022-12-18T04:25:04;100497.50;;;-6.65;100.00
51099;BME280;37146;48.210;16.234;2022-12-18T04:27:30;100497.34;;;-6.48;100.00
51099;BME280;37146;48.210;16.234;2022-12-18T04:29:55;100502.03;;;-6.61;100.00
51099;BME280;37146;48.210;16.234;2022-12-18T04:32:20;100502.69;;;-6.45;100.00
51099;BME280;37146;48.210;16.234;2022-12-18T04:34:45;100510.91;;;-6.77;100.00
51099;BME280;37146;48.210;16.234;2022-12-18T04:37:10;100517.72;;;-7.00;100.00
51099;BME280;37146;48.210;16.234;2022-12-18T04:39:36;100512.41;;;-6.82;100.00
51099;BME280;37146;48.210;16.234;2022-12-18T04:42:01;100509.19;;;-6.76;100.00
51099;BME280;37146;48.210;16.234;2022-12-18T04:44:26;100512.97;;;-6.89;100.00
51099;BME280;37146;48.210;16.234;2022-12-18T04:46:51;100513.94;;;-6.87;100.00
51099;BME280;37146;48.210;16.234;2022-12-18T04:49:17;100515.81;;;-6.83;100.00
51099;BME280;37146;48.210;16.234;2022-12-18T04:51:42;100527.09;;;-6.84;100.00
51099;BME280;37146;48.210;16.234;2022-12-18T04:54:07;100524.38;;;-7.07;100.00
51099;BME280;37146;48.210;16.234;2022-12-18T04:56:32;100528.75;;;-7.06;100.00
51099;BME280;37146;48.210;16.234;2022-12-18T04:58:58;100529.78;;;-7.02;100.00
51099;BME280;37146;48.210;16.234;2022-12-18T05:01:23;100540.81;;;-7.08;100.00
51099;BME280;37146;48.210;16.234;2022-12-18T05:03:48;100546.94;;;-6.86;100.00
51099;BME280;37146;48.210;16.234;2022-12-18T05:06:13;100546.41;;;-6.99;100.00
51099;BME280;37146;48.210;16.234;2022-12-18T05:08:38;100554.41;;;-6.94;100.00
51099;BME280;37146;48.210;16.234;2022-12-18T05:13:29;100550.84;;;-6.96;100.00
51099;BME280;37146;48.210;16.234;2022-12-18T05:15:55;100560.84;;;-7.05;100.00
51099;BME280;37146;48.210;16.234;2022-12-18T05:18:21;100556.38;;;-6.88;100.00
51099;BME280;37146;48.210;16.234;2022-12-18T05:20:46;100560.63;;;-6.90;100.00
51099;BME280;37146;48.210;16.234;2022-12-18T05:23:11;100555.44;;;-7.10;100.00
51099;BME280;37146;48.210;16.234;2022-12-18T05:25:36;100554.06;;;-7.21;100.00
51099;BME280;37146;48.210;16.234;2022-12-18T05:28:02;100553.91;;;-7.24;100.00
51099;BME280;37146;48.210;16.234;2022-12-18T05:30:27;100551.31;;;-7.24;100.00
51099;BME280;37146;48.210;16.234;2022-12-18T05:32:52;100560.63;;;-7.30;100.00
51099;BME280;37146;48.210;16.234;2022-12-18T05:35:18;100561.97;;;-7.38;100.00
51099;BME280;37146;48.210;16.234;2022-12-18T05:37:43;100559.47;;;-7.36;100.00
51099;BME280;37146;48.210;16.234;2022-12-18T05:40:09;100559.78;;;-7.48;100.00
51099;BME280;37146;48.210;16.234;2022-12-18T05:42:34;100559.69;;;-7.32;100.00
51099;BME280;37146;48.210;16.234;2022-12-18T05:44:59;100558.34;;;-7.41;100.00
51099;BME280;37146;48.210;16.234;2022-12-18T05:47:26;100557.78;;;-7.54;100.00
51099;BME280;37146;48.210;16.234;2022-12-18T05:49:51;100561.03;;;-7.78;100.00
51099;BME280;37146;48.210;16.234;2022-12-18T05:52:16;100563.19;;;-7.49;100.00
51099;BME280;37146;48.210;16.234;2022-12-18T05:54:41;100566.44;;;-7.35;100.00
51099;BME280;37146;48.210;16.234;2022-12-18T05:57:07;100565.25;;;-7.62;100.00
51099;BME280;37146;48.210;16.234;2022-12-18T05:59:32;100560.28;;;-7.75;100.00
51099;BME280;37146;48.210;16.234;2022-12-18T06:01:57;100570.53;;;-7.78;100.00
51099;BME280;37146;48.210;16.234;2022-12-18T06:04:22;100577.22;;;-7.83;100.00
51099;BME280;37146;48.210;16.234;2022-12-18T06:06:47;100579.81;;;-7.83;100.00
51099;BME280;37146;48.210;16.234;2022-12-18T06:09:13;100588.00;;;-7.94;100.00
51099;BME280;37146;48.210;16.234;2022-12-18T06:11:38;100583.47;;;-7.80;100.00
51099;BME280;37146;48.210;16.234;2022-12-18T06:14:04;100598.28;;;-7.77;100.00
51099;BME280;37146;48.210;16.234;2022-12-18T06:16:30;100593.03;;;-7.79;100.00
51099;BME280;37146;48.210;16.234;2022-12-18T06:18:56;100591.13;;;-7.63;100.00
51099;BME280;37146;48.210;16.234;2022-12-18T06:21:21;100595.16;;;-7.70;100.00
51099;BME280;37146;48.210;16.234;2022-12-18T06:23:47;100605.25;;;-8.12;100.00
51099;BME280;37146;48.210;16.234;2022-12-18T06:26:12;100600.06;;;-8.12;100.00
51099;BME280;37146;48.210;16.234;2022-12-18T06:28:37;100611.06;;;-8.00;100.00
51099;BME280;37146;48.210;16.234;2022-12-18T06:31:03;100597.03;;;-7.85;100.00
51099;BME280;37146;48.210;16.234;2022-12-18T06:33:29;100600.66;;;-8.00;100.00
51099;BME280;37146;48.210;16.234;2022-12-18T06:35:59;100605.69;;;-8.03;100.00
51099;BME280;37146;48.210;16.234;2022-12-18T06:38:24;100615.63;;;-8.12;100.00
51099;BME280;37146;48.210;16.234;2022-12-18T06:40:49;100612.97;;;-8.14;100.00
51099;BME280;37146;48.210;16.234;2022-12-18T06:43:15;100617.88;;;-8.02;100.00
51099;BME280;37146;48.210;16.234;2022-12-18T06:45:40;100609.84;;;-8.07;100.00
51099;BME280;37146;48.210;16.234;2022-12-18T06:48:05;100615.78;;;-8.27;100.00
51099;BME280;37146;48.210;16.234;2022-12-18T06:50:30;100623.03;;;-8.20;100.00
51099;BME280;37146;48.210;16.234;2022-12-18T06:52:55;100625.81;;;-7.99;100.00
51099;BME280;37146;48.210;16.234;2022-12-18T06:55:21;100627.75;;;-7.95;100.00
51099;BME280;37146;48.210;16.234;2022-12-18T06:57:46;100634.75;;;-7.94;100.00
51099;BME280;37146;48.210;16.234;2022-12-18T07:00:11;100643.25;;;-7.78;100.00
51099;BME280;37146;48.210;16.234;2022-12-18T07:02:36;100645.63;;;-7.83;100.00
51099;BME280;37146;48.210;16.234;2022-12-18T07:05:02;100644.50;;;-7.88;100.00
51099;BME280;37146;48.210;16.234;2022-12-18T07:07:27;100640.38;;;-7.66;100.00
51099;BME280;37146;48.210;16.234;2022-12-18T07:09:52;100643.56;;;-7.72;100.00
51099;BME280;37146;48.210;16.234;2022-12-18T07:12:18;100649.88;;;-7.67;100.00
51099;BME280;37146;48.210;16.234;2022-12-18T07:14:43;100651.97;;;-6.84;100.00
51099;BME280;37146;48.210;16.234;2022-12-18T07:17:08;100651.16;;;-6.42;100.00
51099;BME280;37146;48.210;16.234;2022-12-18T07:19:33;100665.91;;;-6.43;100.00
51099;BME280;37146;48.210;16.234;2022-12-18T07:21:59;100677.34;;;-6.39;100.00
51099;BME280;37146;48.210;16.234;2022-12-18T07:24:24;100684.16;;;-6.22;100.00
51099;BME280;37146;48.210;16.234;2022-12-18T07:26:49;100676.94;;;-5.65;100.00
51099;BME280;37146;48.210;16.234;2022-12-18T07:29:14;100676.16;;;-5.19;100.00
51099;BME280;37146;48.210;16.234;2022-12-18T07:31:40;100693.00;;;-5.54;100.00
51099;BME280;37146;48.210;16.234;2022-12-18T07:34:05;100677.63;;;-5.25;100.00
51099;BME280;37146;48.210;16.234;2022-12-18T07:36:34;100681.97;;;-4.79;99.11
51099;BME280;37146;48.210;16.234;2022-12-18T07:38:59;100683.50;;;-4.86;98.19
51099;BME280;37146;48.210;16.234;2022-12-18T07:41:25;100682.09;;;-4.76;97.84
51099;BME280;37146;48.210;16.234;2022-12-18T07:43:50;100690.09;;;-4.71;97.48
51099;BME280;37146;48.210;16.234;2022-12-18T07:46:15;100698.47;;;-4.33;96.51
51099;BME280;37146;48.210;16.234;2022-12-18T07:48:41;100698.19;;;-4.41;97.40
51099;BME280;37146;48.210;16.234;2022-12-18T07:51:06;100705.16;;;-4.15;94.78
51099;BME280;37146;48.210;16.234;2022-12-18T07:53:33;100704.13;;;-3.43;91.73
51099;BME280;37146;48.210;16.234;2022-12-18T07:55:59;100698.22;;;-3.08;88.76
51099;BME280;37146;48.210;16.234;2022-12-18T07:58:25;100712.19;;;-3.08;89.31
51099;BME280;37146;48.210;16.234;2022-12-18T08:00:50;100716.56;;;-3.36;90.96
51099;BME280;37146;48.210;16.234;2022-12-18T08:03:15;100723.25;;;-2.89;85.76
51099;BME280;37146;48.210;16.234;2022-12-18T08:05:41;100724.38;;;-2.51;84.07
51099;BME280;37146;48.210;16.234;2022-12-18T08:08:06;100716.94;;;-1.71;80.85
51099;BME280;37146;48.210;16.234;2022-12-18T08:10:31;100719.84;;;-2.85;84.18
51099;BME280;37146;48.210;16.234;2022-12-18T08:12:56;100719.31;;;-2.44;84.88
51099;BME280;37146;48.210;16.234;2022-12-18T08:15:22;100729.06;;;-2.08;81.72
51099;BME280;37146;48.210;16.234;2022-12-18T08:17:47;100717.59;;;-1.78;81.18
51099;BME280;37146;48.210;16.234;2022-12-18T08:20:12;100710.38;;;-1.87;80.08
51099;BME280;37146;48.210;16.234;2022-12-18T08:22:39;100711.56;;;-1.02;76.71
51099;BME280;37146;48.210;16.234;2022-12-18T08:25:05;100712.47;;;-0.60;75.90
51099;BME280;37146;48.210;16.234;2022-12-18T08:27:30;100709.94;;;-0.97;76.39
51099;BME280;37146;48.210;16.234;2022-12-18T08:29:56;100706.94;;;-0.33;73.64
51099;BME280;37146;48.210;16.234;2022-12-18T08:32:21;100710.47;;;-2.48;82.20
51099;BME280;37146;48.210;16.234;2022-12-18T08:34:46;100718.06;;;-3.70;89.26
51099;BME280;37146;48.210;16.234;2022-12-18T08:37:12;100719.09;;;-3.65;89.86
51099;BME280;37146;48.210;16.234;2022-12-18T08:39:37;100713.84;;;-4.16;97.41
51099;BME280;37146;48.210;16.234;2022-12-18T08:42:02;100722.50;;;-4.17;98.56
51099;BME280;37146;48.210;16.234;2022-12-18T08:44:46;100721.53;;;-4.45;100.00
51099;BME280;37146;48.210;16.234;2022-12-18T08:47:12;100723.69;;;-4.81;100.00
51099;BME280;37146;48.210;16.234;2022-12-18T08:49:37;100721.25;;;-4.76;100.00
51099;BME280;37146;48.210;16.234;2022-12-18T08:52:02;100725.78;;;-4.94;100.00
51099;BME280;37146;48.210;16.234;2022-12-18T08:54:27;100735.50;;;-5.13;100.00
51099;BME280;37146;48.210;16.234;2022-12-18T08:56:53;100730.00;;;-4.75;100.00
51099;BME280;37146;48.210;16.234;2022-12-18T08:59:18;100727.78;;;-4.64;100.00
51099;BME280;37146;48.210;16.234;2022-12-18T09:01:44;100728.31;;;-4.73;100.00
51099;BME280;37146;48.210;16.234;2022-12-18T09:04:10;100732.66;;;-4.97;100.00
51099;BME280;37146;48.210;16.234;2022-12-18T09:06:35;100735.44;;;-4.92;100.00
51099;BME280;37146;48.210;16.234;2022-12-18T09:09:01;100744.44;;;-5.29;100.00
51099;BME280;37146;48.210;16.234;2022-12-18T09:11:27;100738.41;;;-4.83;100.00
51099;BME280;37146;48.210;16.234;2022-12-18T09:13:53;100746.84;;;-4.90;100.00
51099;BME280;37146;48.210;16.234;2022-12-18T09:16:19;100744.06;;;-4.72;100.00
51099;BME280;37146;48.210;16.234;2022-12-18T09:18:44;100737.69;;;-5.01;100.00
51099;BME280;37146;48.210;16.234;2022-12-18T09:21:16;100742.41;;;-4.92;100.00
51099;BME280;37146;48.210;16.234;2022-12-18T09:23:42;100743.22;;;-4.71;100.00
51099;BME280;37146;48.210;16.234;2022-12-18T09:26:07;100745.66;;;-4.53;100.00
51099;BME280;37146;48.210;16.234;2022-12-18T09:28:33;100747.53;;;-4.71;100.00
51099;BME280;37146;48.210;16.234;2022-12-18T09:30:58;100738.63;;;-4.54;100.00
51099;BME280;37146;48.210;16.234;2022-12-18T09:33:24;100728.94;;;-4.56;100.00
51099;BME280;37146;48.210;16.234;2022-12-18T09:35:49;100727.47;;;-4.50;100.00
51099;BME280;37146;48.210;16.234;2022-12-18T09:38:15;100718.41;;;-4.35;100.00
51099;BME280;37146;48.210;16.234;2022-12-18T09:40:45;100723.97;;;-4.26;100.00
51099;BME280;37146;48.210;16.234;2022-12-18T09:43:55;100731.03;;;-4.23;100.00
51099;BME280;37146;48.210;16.234;2022-12-18T09:46:02;100733.63;;;-4.47;100.00
51099;BME280;37146;48.210;16.234;2022-12-18T09:48:30;100730.25;;;-4.21;100.00
51099;BME280;37146;48.210;16.234;2022-12-18T09:50:58;100725.25;;;-4.14;100.00
51099;BME280;37146;48.210;16.234;2022-12-18T09:53:26;100721.84;;;-4.12;100.00
51099;BME280;37146;48.210;16.234;2022-12-18T09:55:53;100715.84;;;-4.09;100.00
51099;BME280;37146;48.210;16.234;2022-12-18T10:00:53;100717.97;;;-3.99;100.00
51099;BME280;37146;48.210;16.234;2022-12-18T10:03:19;100724.22;;;-3.94;100.00
51099;BME280;37146;48.210;16.234;2022-12-18T10:08:22;100710.03;;;-4.00;100.00
51099;BME280;37146;48.210;16.234;2022-12-18T10:10:51;100712.09;;;-3.92;100.00
51099;BME280;37146;48.210;16.234;2022-12-18T10:19:14;100703.91;;;-4.02;100.00
51099;BME280;37146;48.210;16.234;2022-12-18T10:21:15;100705.50;;;-3.80;100.00
51099;BME280;37146;48.210;16.234;2022-12-18T10:23:54;100709.69;;;-3.85;100.00
51099;BME280;37146;48.210;16.234;2022-12-18T10:26:24;100707.59;;;-3.70;100.00
51099;BME280;37146;48.210;16.234;2022-12-18T10:28:50;100714.50;;;-3.98;100.00
51099;BME280;37146;48.210;16.234;2022-12-18T10:31:22;100713.59;;;-3.98;100.00
51099;BME280;37146;48.210;16.234;2022-12-18T10:33:47;100705.50;;;-4.06;100.00
51099;BME280;37146;48.210;16.234;2022-12-18T10:36:13;100706.88;;;-3.92;100.00
51099;BME280;37146;48.210;16.234;2022-12-18T10:38:38;100703.09;;;-4.00;100.00
51099;BME280;37146;48.210;16.234;2022-12-18T10:41:05;100701.97;;;-4.08;100.00
51099;BME280;37146;48.210;16.234;2022-12-18T10:46:00;100700.00;;;-3.88;100.00
51099;BME280;37146;48.210;16.234;2022-12-18T10:48:26;100696.97;;;-4.00;100.00
51099;BME280;37146;48.210;16.234;2022-12-18T10:50:51;100701.00;;;-3.84;100.00
51099;BME280;37146;48.210;16.234;2022-12-18T10:53:21;100698.34;;;-3.86;100.00
51099;BME280;37146;48.210;16.234;2022-12-18T10:55:47;100690.47;;;-3.88;100.00
51099;BME280;37146;48.210;16.234;2022-12-18T10:58:13;100682.97;;;-3.77;100.00
51099;BME280;37146;48.210;16.234;2022-12-18T11:00:41;100691.19;;;-3.92;100.00
51099;BME280;37146;48.210;16.234;2022-12-18T11:03:28;100692.00;;;-3.93;100.00
51099;BME280;37146;48.210;16.234;2022-12-18T11:06:00;100691.31;;;-4.13;100.00
51099;BME280;37146;48.210;16.234;2022-12-18T11:08:26;100682.56;;;-4.15;100.00
51099;BME280;37146;48.210;16.234;2022-12-18T11:10:51;100680.00;;;-4.13;100.00
51099;BME280;37146;48.210;16.234;2022-12-18T11:13:23;100687.72;;;-4.16;100.00
51099;BME280;37146;48.210;16.234;2022-12-18T11:15:50;100698.06;;;-4.20;100.00
51099;BME280;37146;48.210;16.234;2022-12-18T11:18:26;100685.84;;;-3.95;100.00
51099;BME280;37146;48.210;16.234;2022-12-18T11:20:54;100682.47;;;-4.16;100.00
51099;BME280;37146;48.210;16.234;2022-12-18T11:23:20;100682.59;;;-4.13;100.00
51099;BME280;37146;48.210;16.234;2022-12-18T11:25:51;100692.06;;;-4.17;100.00
51099;BME280;37146;48.210;16.234;2022-12-18T11:28:37;100687.72;;;-4.16;100.00
51099;BME280;37146;48.210;16.234;2022-12-18T11:31:16;100684.16;;;-4.19;100.00
51099;BME280;37146;48.210;16.234;2022-12-18T11:33:42;100683.22;;;-4.21;100.00
51099;BME280;37146;48.210;16.234;2022-12-18T11:36:09;100693.56;;;-4.24;100.00
51099;BME280;37146;48.210;16.234;2022-12-18T11:38:36;100683.66;;;-4.08;100.00
51099;BME280;37146;48.210;16.234;2022-12-18T11:41:04;100670.31;;;-4.16;100.00
51099;BME280;37146;48.210;16.234;2022-12-18T11:49:12;100666.13;;;-4.11;100.00
51099;BME280;37146;48.210;16.234;2022-12-18T11:51:22;100663.03;;;-4.25;100.00
51099;BME280;37146;48.210;16.234;2022-12-18T11:53:51;100657.63;;;-4.31;100.00
51099;BME280;37146;48.210;16.234;2022-12-18T12:01:37;100657.41;;;-4.11;100.00
51099;BME280;37146;48.210;16.234;2022-12-18T12:06:59;100668.16;;;-4.28;100.00
51099;BME280;37146;48.210;16.234;2022-12-18T12:12:11;100663.03;;;-4.25;100.00
51099;BME280;37146;48.210;16.234;2022-12-18T12:22:28;100659.13;;;-4.12;100.00
51099;BME280;37146;48.210;16.234;2022-12-18T12:30:30;100649.34;;;-4.17;100.00
51099;BME280;37146;48.210;16.234;2022-12-18T12:33:19;100641.94;;;-4.05;100.00
51099;BME280;37146;48.210;16.234;2022-12-18T12:35:52;100640.16;;;-4.06;100.00
51099;BME280;37146;48.210;16.234;2022-12-18T12:38:28;100637.34;;;-4.12;100.00
51099;BME280;37146;48.210;16.234;2022-12-18T12:40:57;100635.88;;;-4.04;100.00
51099;BME280;37146;48.210;16.234;2022-12-18T12:45:51;100632.19;;;-3.83;100.00
51099;BME280;37146;48.210;16.234;2022-12-18T12:48:28;100639.97;;;-3.86;100.00
51099;BME280;37146;48.210;16.234;2022-12-18T12:50:56;100626.63;;;-3.94;100.00
51099;BME280;37146;48.210;16.234;2022-12-18T12:53:26;100633.66;;;-3.92;100.00
51099;BME280;37146;48.210;16.234;2022-12-18T12:55:53;100639.97;;;-3.86;100.00
51099;BME280;37146;48.210;16.234;2022-12-18T12:58:23;100641.94;;;-3.79;100.00
51099;BME280;37146;48.210;16.234;2022-12-18T13:06:09;100654.00;;;-3.83;100.00
51099;BME280;37146;48.210;16.234;2022-12-18T13:08:53;100653.03;;;-3.86;100.00
51099;BME280;37146;48.210;16.234;2022-12-18T13:14:38;100670.66;;;-3.81;100.00
51099;BME280;37146;48.210;16.234;2022-12-18T13:19:42;100674.09;;;-3.82;100.00
51099;BME280;37146;48.210;16.234;2022-12-18T13:22:20;100666.72;;;-3.94;100.00
51099;BME280;37146;48.210;16.234;2022-12-18T13:24:46;100666.47;;;-3.74;100.00
51099;BME280;37146;48.210;16.234;2022-12-18T13:29:55;100658.59;;;-3.76;100.00
51099;BME280;37146;48.210;16.234;2022-12-18T13:32:22;100667.16;;;-3.80;100.00
51099;BME280;37146;48.210;16.234;2022-12-18T13:34:47;100665.00;;;-3.93;100.00
51099;BME280;37146;48.210;16.234;2022-12-18T13:37:34;100659.72;;;-3.67;100.00
51099;BME280;37146;48.210;16.234;2022-12-18T13:40:20;100661.16;;;-3.77;100.00
51099;BME280;37146;48.210;16.234;2022-12-18T13:42:49;100665.88;;;-3.67;100.00
51099;BME280;37146;48.210;16.234;2022-12-18T13:45:37;100673.81;;;-3.64;100.00
51099;BME280;37146;48.210;16.234;2022-12-18T13:48:03;100668.59;;;-3.64;100.00
51099;BME280;37146;48.210;16.234;2022-12-18T13:50:29;100674.44;;;-3.71;100.00
51099;BME280;37146;48.210;16.234;2022-12-18T13:52:54;100677.19;;;-3.66;100.00